KSKA/SKA METAR and TAF weather

Enter ICAO airport designator
Station Type Date Time Source
KSKA METAR 2019/08/23 15:58 UTC NOAA

KSKA 231558Z AUTO 00000KT 10SM CLR 19/10 A3000 RMK AO2 SLP149 T01940104 $


Station Type Date Time Source
KSKA Decoded METAR 2019/08/23 15:58 UTC NOAA

Station name not available
Aug 23, 2019 - 11:58 AM EDT / 2019.08.23 1558 UTC
Wind: Calm:0
Visibility: 10 mile(s):0
Sky conditions: clear
Temperature: 66.9 F (19.4 C)
Dew Point: 50.7 F (10.4 C)
Relative Humidity: 55%
Pressure (altimeter): 30 in. Hg (1015 hPa)
ob: KSKA 231558Z AUTO 00000KT 10SM CLR 19/10 A3000 RMK AO2 SLP149 T01940104
cycle: 16

Station Type Date Time Source
KSKA TAF 2019/08/23 11:03 UTC NOAA

TAF KSKA 231100Z 2311/2417 15009KT 9999 FEW100 SCT200 QNH2986INS
BECMG 2323/2324 22006KT 9999 SCT030 BKN060 QNH2981INS TX26/2400Z TN11/2312Z

Example: see airport list